Time;durP1;ratioP1;P1;durP2;ratioP2;P2;SDS_P1;SDS_P2;PMS_P1;PMS_P2;Temp;Humidity;BMP_temperature;BMP_pressure;BME280_temperature;BME280_humidity;BME280_pressure;Samples;Min_cycle;Max_cycle;Signal;HPM_P1;HPM_P2
2023/08/07 00:00:44;;;;;;;8.18;2.90;;;;;;;;;;5029178;28;20084;-70
2023/08/07 00:03:11;;;;;;;6.00;3.00;;;;;;;;;;5027544;28;20048;-70
2023/08/07 00:05:37;;;;;;;5.68;2.35;;;;;;;;;;5028754;28;20033;-71
2023/08/07 00:08:03;;;;;;;4.03;2.55;;;;;;;;;;5027456;28;20025;-70
2023/08/07 00:10:29;;;;;;;6.20;1.80;;;;;;;;;;5028365;28;20045;-70
2023/08/07 00:12:55;;;;;;;8.98;3.20;;;;;;;;;;5026055;28;20061;-69
2023/08/07 00:15:22;;;;;;;4.15;2.40;;;;;;;;;;5025852;28;20030;-70
2023/08/07 00:17:48;;;;;;;7.60;2.70;;;;;;;;;;5027210;28;20478;-70
2023/08/07 00:20:14;;;;;;;4.35;2.33;;;;;;;;;;5026706;28;20057;-70
2023/08/07 00:22:40;;;;;;;5.20;2.38;;;;;;;;;;5020798;28;20037;-70
2023/08/07 00:25:06;;;;;;;5.57;2.25;;;;;;;;;;5028462;28;20025;-71
2023/08/07 00:27:32;;;;;;;8.55;2.28;;;;;;;;;;5023807;28;20049;-69
2023/08/07 00:29:58;;;;;;;10.02;2.92;;;;;;;;;;5027576;28;21618;-69
2023/08/07 00:32:24;;;;;;;4.68;2.30;;;;;;;;;;5024648;28;20037;-70
2023/08/07 00:34:50;;;;;;;5.70;1.80;;;;;;;;;;5027807;28;20057;-71
2023/08/07 00:37:16;;;;;;;5.90;2.10;;;;;;;;;;5026351;28;20047;-70
2023/08/07 00:39:42;;;;;;;11.20;2.00;;;;;;;;;;5025691;28;20037;-69
2023/08/07 00:42:08;;;;;;;10.38;2.38;;;;;;;;;;5018894;28;20041;-70
2023/08/07 00:44:35;;;;;;;7.97;1.92;;;;;;;;;;5027788;28;20036;-69
2023/08/07 00:47:01;;;;;;;7.22;2.30;;;;;;;;;;5027465;28;20022;-69
2023/08/07 00:49:27;;;;;;;12.02;2.40;;;;;;;;;;5026346;28;20040;-70
2023/08/07 00:51:53;;;;;;;9.38;2.13;;;;;;;;;;5027684;28;20041;-72
2023/08/07 00:54:20;;;;;;;10.88;2.83;;;;;;;;;;5026879;28;20041;-71
2023/08/07 00:56:46;;;;;;;14.32;3.17;;;;;;;;;;5023904;28;20034;-70
2023/08/07 00:59:13;;;;;;;12.60;2.35;;;;;;;;;;5018556;28;20029;-71
2023/08/07 01:01:39;;;;;;;15.65;3.00;;;;;;;;;;5026330;28;20114;-71
2023/08/07 01:04:05;;;;;;;15.45;4.10;;;;;;;;;;5024853;28;20063;-71
2023/08/07 01:06:31;;;;;;;17.67;2.38;;;;;;;;;;5019636;28;20102;-71
2023/08/07 01:08:57;;;;;;;14.52;2.35;;;;;;;;;;5027105;28;20077;-71
2023/08/07 01:11:29;;;;;;;11.93;2.50;;;;;;;;;;5025334;28;20032;-71
2023/08/07 01:13:57;;;;;;;17.67;2.80;;;;;;;;;;5023439;28;20037;-71
2023/08/07 01:16:35;;;;;;;15.38;3.15;;;;;;;;;;5025508;28;20418;-70
2023/08/07 01:19:02;;;;;;;10.88;2.65;;;;;;;;;;5019991;28;20073;-70
2023/08/07 01:21:29;;;;;;;10.50;3.30;;;;;;;;;;5010853;28;20048;-70
2023/08/07 01:23:55;;;;;;;16.38;3.00;;;;;;;;;;5030194;28;20155;-70
2023/08/07 01:26:21;;;;;;;10.30;2.38;;;;;;;;;;5023726;28;20057;-70
2023/08/07 01:28:53;;;;;;;19.17;3.17;;;;;;;;;;5020442;28;20037;-70
2023/08/07 01:31:22;;;;;;;13.82;2.30;;;;;;;;;;5026727;28;20030;-71
2023/08/07 01:33:57;;;;;;;14.10;2.83;;;;;;;;;;5025454;28;20037;-71
2023/08/07 01:36:24;;;;;;;15.65;2.83;;;;;;;;;;5039999;28;20036;-70
2023/08/07 01:38:51;;;;;;;16.67;2.63;;;;;;;;;;5026445;28;20080;-70
2023/08/07 01:41:17;;;;;;;16.25;2.92;;;;;;;;;;5041756;28;20033;-71
2023/08/07 01:43:43;;;;;;;11.60;2.65;;;;;;;;;;5025874;28;20037;-71
2023/08/07 01:46:09;;;;;;;14.07;3.35;;;;;;;;;;5025544;28;20514;-71
2023/08/07 01:48:35;;;;;;;14.60;3.00;;;;;;;;;;5021593;28;20032;-70
2023/08/07 01:51:01;;;;;;;13.07;2.38;;;;;;;;;;5032924;28;20029;-70
2023/08/07 01:53:27;;;;;;;16.50;2.25;;;;;;;;;;5025977;28;20038;-69
2023/08/07 01:55:53;;;;;;;12.73;2.50;;;;;;;;;;5042198;28;20041;-70
2023/08/07 01:58:19;;;;;;;15.95;3.20;;;;;;;;;;5026683;28;20033;-70
2023/08/07 02:00:45;;;;;;;12.45;3.15;;;;;;;;;;5024869;28;20503;-70
2023/08/07 02:03:11;;;;;;;15.65;3.20;;;;;;;;;;5025680;28;20091;-70
2023/08/07 02:05:37;;;;;;;15.52;2.92;;;;;;;;;;5037054;28;20030;-70
2023/08/07 02:08:03;;;;;;;19.25;3.05;;;;;;;;;;5040993;28;20025;-70
2023/08/07 02:10:29;;;;;;;11.63;2.10;;;;;;;;;;5027316;28;20033;-70
2023/08/07 02:12:58;;;;;;;11.18;2.13;;;;;;;;;;5026319;28;20029;-70
2023/08/07 02:15:24;;;;;;;15.90;2.95;;;;;;;;;;5025913;28;20041;-70
2023/08/07 02:17:50;;;;;;;18.65;2.10;;;;;;;;;;5024104;28;20491;-70
2023/08/07 02:20:16;;;;;;;13.38;2.33;;;;;;;;;;5024308;28;20037;-69
2023/08/07 02:22:42;;;;;;;12.77;2.70;;;;;;;;;;5026769;28;20029;-69
2023/08/07 02:25:08;;;;;;;14.65;2.15;;;;;;;;;;5026564;28;20471;-69
2023/08/07 02:27:34;;;;;;;17.40;3.17;;;;;;;;;;5026987;28;20041;-69
2023/08/07 02:30:02;;;;;;;12.90;2.22;;;;;;;;;;5024137;28;20033;-70
2023/08/07 02:32:28;;;;;;;12.02;2.30;;;;;;;;;;5021195;28;20088;-70
2023/08/07 02:34:54;;;;;;;15.15;3.05;;;;;;;;;;5026134;28;20053;-69
2023/08/07 02:37:21;;;;;;;14.68;2.67;;;;;;;;;;5025209;28;20018;-70
2023/08/07 02:39:47;;;;;;;12.43;2.97;;;;;;;;;;5024786;28;20060;-70
2023/08/07 02:42:13;;;;;;;15.20;2.25;;;;;;;;;;5024435;28;20029;-70
2023/08/07 02:44:39;;;;;;;16.90;2.50;;;;;;;;;;5039995;28;20049;-70
2023/08/07 02:47:05;;;;;;;19.08;2.67;;;;;;;;;;5020842;28;20099;-70
2023/08/07 02:49:31;;;;;;;20.20;3.25;;;;;;;;;;5026717;28;20029;-69
2023/08/07 02:51:57;;;;;;;13.48;2.42;;;;;;;;;;5028942;28;20402;-70
2023/08/07 02:54:23;;;;;;;11.82;2.28;;;;;;;;;;5027482;28;20045;-69
2023/08/07 02:56:49;;;;;;;19.20;3.38;;;;;;;;;;5029845;28;20033;-70
2023/08/07 02:59:15;;;;;;;10.02;2.67;;;;;;;;;;5029520;28;20037;-70
2023/08/07 03:01:42;;;;;;;10.98;2.13;;;;;;;;;;5027407;28;20544;-69
2023/08/07 03:04:08;;;;;;;15.20;2.67;;;;;;;;;;5027915;28;20041;-70
2023/08/07 03:06:34;;;;;;;19.75;3.47;;;;;;;;;;5029327;28;20033;-70
2023/08/07 03:09:00;;;;;;;15.75;2.92;;;;;;;;;;5027336;28;20045;-70
2023/08/07 03:11:26;;;;;;;13.93;2.45;;;;;;;;;;5023619;28;20075;-70
2023/08/07 03:13:52;;;;;;;12.95;2.05;;;;;;;;;;5027199;28;20183;-70
2023/08/07 03:16:18;;;;;;;8.18;2.65;;;;;;;;;;5030595;28;20026;-69
2023/08/07 03:18:44;;;;;;;8.40;2.50;;;;;;;;;;5027916;28;20038;-69
2023/08/07 03:21:10;;;;;;;12.45;2.10;;;;;;;;;;5029277;28;20037;-69
2023/08/07 03:23:36;;;;;;;12.35;2.28;;;;;;;;;;5025470;28;20430;-71
2023/08/07 03:26:06;;;;;;;14.52;2.63;;;;;;;;;;5024821;28;20211;-70
2023/08/07 03:28:33;;;;;;;10.20;2.40;;;;;;;;;;5025923;28;20149;-69
2023/08/07 03:30:59;;;;;;;10.32;2.50;;;;;;;;;;5027682;28;20029;-70
2023/08/07 03:33:25;;;;;;;11.80;2.53;;;;;;;;;;5033199;28;20041;-70
2023/08/07 03:35:51;;;;;;;14.57;3.10;;;;;;;;;;5027991;28;20073;-70
2023/08/07 03:38:17;;;;;;;14.25;3.50;;;;;;;;;;5024828;28;20126;-70
2023/08/07 03:40:43;;;;;;;19.40;3.22;;;;;;;;;;5038402;28;20033;-70
2023/08/07 03:43:09;;;;;;;22.75;3.88;;;;;;;;;;5026275;28;20037;-71
2023/08/07 03:45:35;;;;;;;17.50;3.45;;;;;;;;;;5024714;28;20379;-69
2023/08/07 03:48:01;;;;;;;19.42;3.95;;;;;;;;;;5028519;28;20021;-70
2023/08/07 03:50:27;;;;;;;17.33;4.93;;;;;;;;;;5027855;28;20030;-72
2023/08/07 03:52:53;;;;;;;15.65;3.17;;;;;;;;;;5028505;28;20144;-70
2023/08/07 03:55:19;;;;;;;15.57;3.95;;;;;;;;;;5022510;28;20124;-70
2023/08/07 03:57:45;;;;;;;21.52;4.07;;;;;;;;;;5024861;28;20048;-71
2023/08/07 04:00:12;;;;;;;17.52;4.97;;;;;;;;;;5018635;28;20037;-70
2023/08/07 04:02:38;;;;;;;22.13;4.38;;;;;;;;;;5028253;28;20034;-71
2023/08/07 04:05:04;;;;;;;21.70;4.13;;;;;;;;;;5019964;28;20387;-71
2023/08/07 04:07:30;;;;;;;29.65;4.03;;;;;;;;;;5013251;28;20091;-72
2023/08/07 04:09:56;;;;;;;14.32;3.35;;;;;;;;;;5025981;28;20037;-72
2023/08/07 04:12:22;;;;;;;15.70;2.88;;;;;;;;;;5024506;28;20037;-71
2023/08/07 04:14:48;;;;;;;18.25;3.70;;;;;;;;;;5021412;28;20038;-72
2023/08/07 04:17:14;;;;;;;20.30;3.55;;;;;;;;;;5023952;28;20029;-71
2023/08/07 04:19:40;;;;;;;13.15;3.22;;;;;;;;;;5024689;28;20530;-71
2023/08/07 04:22:06;;;;;;;13.55;2.75;;;;;;;;;;5026466;28;20065;-70
2023/08/07 04:24:32;;;;;;;19.83;3.55;;;;;;;;;;5023891;28;20104;-70
2023/08/07 04:26:58;;;;;;;9.95;2.80;;;;;;;;;;5025438;28;20124;-71
2023/08/07 04:29:25;;;;;;;13.43;2.97;;;;;;;;;;5027362;28;20076;-72
2023/08/07 04:31:51;;;;;;;11.35;3.05;;;;;;;;;;5018263;28;20160;-70
2023/08/07 04:34:17;;;;;;;13.88;4.00;;;;;;;;;;5022294;28;20124;-70
2023/08/07 04:36:43;;;;;;;17.33;3.70;;;;;;;;;;5022277;28;20061;-70
2023/08/07 04:39:09;;;;;;;13.70;3.00;;;;;;;;;;5023572;28;20480;-71
2023/08/07 04:41:35;;;;;;;18.85;3.40;;;;;;;;;;5021313;28;20033;-70
2023/08/07 04:44:01;;;;;;;18.27;3.42;;;;;;;;;;5035738;28;20037;-70
2023/08/07 04:46:27;;;;;;;15.57;3.42;;;;;;;;;;5024686;28;20033;-69
2023/08/07 04:48:54;;;;;;;15.07;3.90;;;;;;;;;;5009829;28;20033;-71
2023/08/07 04:51:20;;;;;;;19.50;4.45;;;;;;;;;;5022461;28;20143;-69
2023/08/07 04:53:46;;;;;;;16.75;4.07;;;;;;;;;;5024761;28;20121;-71
2023/08/07 04:56:12;;;;;;;22.33;5.13;;;;;;;;;;5024002;28;20037;-71
2023/08/07 04:58:38;;;;;;;15.25;3.88;;;;;;;;;;5026446;28;20126;-70
2023/08/07 05:01:04;;;;;;;17.20;4.32;;;;;;;;;;5024435;28;20387;-70
2023/08/07 05:03:31;;;;;;;25.00;5.32;;;;;;;;;;5024364;28;20048;-71
2023/08/07 05:06:00;;;;;;;21.42;5.13;;;;;;;;;;5025472;28;20033;-71
2023/08/07 05:08:27;;;;;;;18.00;4.07;;;;;;;;;;5026747;28;20068;-70
2023/08/07 05:10:53;;;;;;;15.85;3.45;;;;;;;;;;5017610;28;20029;-71
2023/08/07 05:13:19;;;;;;;21.88;4.32;;;;;;;;;;5025498;28;20067;-72
2023/08/07 05:15:47;;;;;;;18.95;4.88;;;;;;;;;;5030426;28;20116;-71
2023/08/07 05:18:13;;;;;;;20.08;3.50;;;;;;;;;;5026230;28;20095;-70
2023/08/07 05:20:39;;;;;;;16.95;3.53;;;;;;;;;;5023515;28;20468;-72
2023/08/07 05:23:05;;;;;;;18.33;4.07;;;;;;;;;;5022736;28;20477;-70
2023/08/07 05:25:32;;;;;;;22.20;4.28;;;;;;;;;;5026009;28;20410;-70
2023/08/07 05:27:58;;;;;;;17.40;3.97;;;;;;;;;;5024221;28;20442;-71
2023/08/07 05:30:24;;;;;;;23.63;4.32;;;;;;;;;;5027119;28;20087;-71
2023/08/07 05:32:50;;;;;;;16.60;3.25;;;;;;;;;;5026222;28;20064;-70
2023/08/07 05:35:16;;;;;;;21.85;4.32;;;;;;;;;;5023791;28;20419;-71
2023/08/07 05:37:42;;;;;;;18.38;4.13;;;;;;;;;;5024922;28;20067;-71
2023/08/07 05:40:11;;;;;;;21.30;3.92;;;;;;;;;;5022592;28;20034;-73
2023/08/07 05:42:37;;;;;;;15.15;4.78;;;;;;;;;;5026220;28;20514;-71
2023/08/07 05:45:04;;;;;;;16.50;3.40;;;;;;;;;;5025028;28;20083;-70
2023/08/07 05:47:30;;;;;;;24.00;3.97;;;;;;;;;;5025510;28;20090;-70
2023/08/07 05:49:56;;;;;;;17.90;3.72;;;;;;;;;;5027569;28;20103;-70
2023/08/07 05:52:22;;;;;;;19.35;3.40;;;;;;;;;;5025880;28;20041;-71
2023/08/07 05:54:48;;;;;;;17.38;4.18;;;;;;;;;;5025413;28;20629;-70
2023/08/07 05:57:14;;;;;;;16.55;3.42;;;;;;;;;;5021782;28;20663;-72
2023/08/07 05:59:40;;;;;;;12.75;3.78;;;;;;;;;;5023819;28;20036;-72
2023/08/07 06:02:06;;;;;;;18.73;3.72;;;;;;;;;;5024898;28;20045;-70
2023/08/07 06:04:33;;;;;;;12.50;3.70;;;;;;;;;;5025847;28;20037;-70
2023/08/07 06:06:59;;;;;;;11.63;3.65;;;;;;;;;;5023845;28;20037;-72
2023/08/07 06:09:25;;;;;;;20.13;3.20;;;;;;;;;;5025607;28;20612;-70
2023/08/07 06:11:51;;;;;;;19.63;3.90;;;;;;;;;;5026267;28;20537;-71
2023/08/07 06:14:17;;;;;;;18.55;4.05;;;;;;;;;;5026479;28;20037;-71
2023/08/07 06:16:43;;;;;;;17.73;3.92;;;;;;;;;;5026714;28;20415;-70
2023/08/07 06:19:10;;;;;;;24.67;4.35;;;;;;;;;;5024584;28;20034;-71
2023/08/07 06:21:36;;;;;;;14.73;3.50;;;;;;;;;;5026360;28;20037;-71
2023/08/07 06:24:02;;;;;;;17.90;3.90;;;;;;;;;;5026428;28;20030;-71
2023/08/07 06:26:28;;;;;;;17.50;4.45;;;;;;;;;;5029806;28;20071;-71
2023/08/07 06:28:54;;;;;;;12.95;3.58;;;;;;;;;;5028837;28;20033;-71
2023/08/07 06:31:20;;;;;;;19.13;4.00;;;;;;;;;;5029739;28;20379;-70
2023/08/07 06:33:47;;;;;;;18.88;3.80;;;;;;;;;;5029745;28;20281;-71
2023/08/07 06:36:13;;;;;;;11.48;3.60;;;;;;;;;;5029351;28;20456;-70
2023/08/07 06:38:39;;;;;;;10.25;3.88;;;;;;;;;;5030297;28;20033;-72
2023/08/07 06:41:05;;;;;;;10.50;2.75;;;;;;;;;;5027802;28;20045;-71
2023/08/07 06:43:31;;;;;;;11.18;2.75;;;;;;;;;;5027428;28;20030;-71
2023/08/07 06:45:57;;;;;;;13.88;2.70;;;;;;;;;;5025439;28;20037;-71
2023/08/07 06:48:24;;;;;;;19.27;3.25;;;;;;;;;;5024869;28;20841;-70
2023/08/07 06:50:50;;;;;;;18.15;2.88;;;;;;;;;;5027652;28;20479;-71
2023/08/07 06:53:17;;;;;;;14.25;2.55;;;;;;;;;;5025274;28;20032;-72
2023/08/07 06:55:43;;;;;;;21.33;3.38;;;;;;;;;;5028263;28;20029;-71
2023/08/07 06:58:09;;;;;;;17.13;3.00;;;;;;;;;;5023040;28;20486;-70
2023/08/07 07:00:36;;;;;;;8.73;2.58;;;;;;;;;;5023777;28;20152;-70
2023/08/07 07:03:05;;;;;;;13.57;3.45;;;;;;;;;;5026050;28;20478;-70
2023/08/07 07:05:33;;;;;;;14.35;2.55;;;;;;;;;;5030371;28;20026;-72
2023/08/07 07:07:59;;;;;;;7.55;2.47;;;;;;;;;;5046060;28;20032;-71
2023/08/07 07:10:25;;;;;;;24.95;3.50;;;;;;;;;;5040029;28;20099;-71
2023/08/07 07:12:52;;;;;;;11.50;3.22;;;;;;;;;;5027937;28;20034;-72
2023/08/07 07:15:18;;;;;;;11.07;1.88;;;;;;;;;;5022581;28;20029;-71
2023/08/07 07:17:44;;;;;;;10.75;2.70;;;;;;;;;;5026044;28;20029;-70
2023/08/07 07:20:11;;;;;;;8.90;2.90;;;;;;;;;;5026729;28;20043;-73
2023/08/07 07:22:37;;;;;;;12.20;2.20;;;;;;;;;;5019887;28;20036;-70
2023/08/07 07:25:03;;;;;;;13.43;2.33;;;;;;;;;;5024864;28;20669;-70
2023/08/07 07:27:29;;;;;;;6.97;1.70;;;;;;;;;;5030590;28;20480;-71
2023/08/07 07:29:55;;;;;;;6.35;2.42;;;;;;;;;;5029555;28;20044;-70
2023/08/07 07:32:21;;;;;;;14.07;2.70;;;;;;;;;;5026759;28;20045;-69
2023/08/07 07:34:47;;;;;;;12.43;3.15;;;;;;;;;;5029164;28;20108;-72
2023/08/07 07:37:14;;;;;;;12.50;2.25;;;;;;;;;;5026740;28;20104;-72
2023/08/07 07:39:41;;;;;;;7.90;2.10;;;;;;;;;;5026229;28;20098;-71
2023/08/07 07:42:08;;;;;;;8.00;2.17;;;;;;;;;;5026689;28;20052;-72
2023/08/07 07:44:36;;;;;;;10.45;2.38;;;;;;;;;;5027385;28;20061;-73
2023/08/07 07:47:02;;;;;;;8.50;2.47;;;;;;;;;;5020463;28;20041;-69
2023/08/07 07:49:28;;;;;;;12.95;2.42;;;;;;;;;;5024276;28;20549;-69
2023/08/07 07:51:54;;;;;;;15.15;3.42;;;;;;;;;;5027343;28;20030;-70
2023/08/07 07:54:20;;;;;;;10.25;1.67;;;;;;;;;;5028329;28;20029;-70
2023/08/07 07:56:46;;;;;;;9.63;2.30;;;;;;;;;;5026922;28;20422;-70
2023/08/07 07:59:13;;;;;;;8.57;2.63;;;;;;;;;;5028174;28;20137;-69
2023/08/07 08:01:39;;;;;;;9.77;2.35;;;;;;;;;;5023210;28;20026;-70
2023/08/07 08:04:06;;;;;;;15.45;2.80;;;;;;;;;;5027719;28;20052;-70
2023/08/07 08:06:32;;;;;;;13.57;3.47;;;;;;;;;;5026257;28;20029;-70
2023/08/07 08:08:59;;;;;;;7.85;2.65;;;;;;;;;;5017517;28;20357;-70
2023/08/07 08:11:25;;;;;;;6.80;1.88;;;;;;;;;;5026547;28;20026;-70
2023/08/07 08:13:51;;;;;;;14.45;2.63;;;;;;;;;;5023318;28;20103;-71
2023/08/07 08:16:17;;;;;;;8.50;2.63;;;;;;;;;;5025968;28;20195;-71
2023/08/07 08:18:43;;;;;;;11.80;2.33;;;;;;;;;;5026025;28;20923;-71
2023/08/07 08:21:09;;;;;;;8.75;2.90;;;;;;;;;;5027052;28;20044;-72
2023/08/07 08:23:35;;;;;;;16.95;3.40;;;;;;;;;;5028328;28;20455;-71
2023/08/07 08:26:01;;;;;;;12.50;2.63;;;;;;;;;;5026834;28;20036;-72
2023/08/07 08:28:27;;;;;;;10.20;2.47;;;;;;;;;;5009136;28;20464;-72
2023/08/07 08:30:53;;;;;;;10.20;2.40;;;;;;;;;;5027625;28;20040;-71
2023/08/07 08:33:19;;;;;;;10.13;2.63;;;;;;;;;;5025956;28;20172;-71
2023/08/07 08:35:45;;;;;;;9.55;2.58;;;;;;;;;;5024724;28;20160;-71
2023/08/07 08:38:11;;;;;;;13.98;2.97;;;;;;;;;;5026822;28;20113;-71
2023/08/07 08:40:39;;;;;;;12.63;2.67;;;;;;;;;;5025577;28;20036;-71
2023/08/07 08:43:06;;;;;;;10.07;2.47;;;;;;;;;;5027285;28;20087;-72
2023/08/07 08:45:32;;;;;;;9.32;2.22;;;;;;;;;;5025512;28;20029;-71
2023/08/07 08:48:03;;;;;;;12.52;2.78;;;;;;;;;;5024336;28;20057;-71
2023/08/07 08:50:29;;;;;;;12.27;2.05;;;;;;;;;;5026110;28;20178;-73
2023/08/07 08:52:56;;;;;;;11.25;2.38;;;;;;;;;;5023195;28;20141;-71
2023/08/07 08:55:23;;;;;;;10.02;2.30;;;;;;;;;;5024971;28;20094;-71
2023/08/07 08:57:53;;;;;;;10.88;2.08;;;;;;;;;;5025133;28;20102;-72
2023/08/07 09:00:21;;;;;;;10.57;3.10;;;;;;;;;;5025614;28;20041;-71
2023/08/07 09:02:48;;;;;;;8.38;2.00;;;;;;;;;;5020700;28;20092;-72
2023/08/07 09:05:18;;;;;;;8.80;2.10;;;;;;;;;;5040330;28;20030;-72
2023/08/07 09:07:46;;;;;;;9.15;2.95;;;;;;;;;;5026156;28;20110;-72
2023/08/07 09:10:13;;;;;;;7.13;2.05;;;;;;;;;;5027309;28;20030;-71
2023/08/07 09:12:40;;;;;;;7.90;2.20;;;;;;;;;;5027678;28;20045;-73
2023/08/07 09:15:07;;;;;;;7.82;2.05;;;;;;;;;;5024651;28;20060;-73
2023/08/07 09:17:35;;;;;;;10.70;2.50;;;;;;;;;;5040859;28;20037;-71
2023/08/07 09:20:04;;;;;;;8.05;2.00;;;;;;;;;;5025278;28;20029;-73
2023/08/07 09:22:30;;;;;;;8.30;2.10;;;;;;;;;;5025233;28;20033;-71
2023/08/07 09:24:59;;;;;;;9.80;2.08;;;;;;;;;;5023864;28;20112;-70
2023/08/07 09:27:25;;;;;;;9.07;2.47;;;;;;;;;;5025473;28;20068;-71
2023/08/07 09:29:52;;;;;;;8.63;2.40;;;;;;;;;;5024804;28;20034;-70
2023/08/07 09:32:18;;;;;;;10.05;2.25;;;;;;;;;;5025757;28;20065;-72
2023/08/07 09:34:44;;;;;;;9.68;2.13;;;;;;;;;;5024671;28;20053;-72
2023/08/07 09:37:11;;;;;;;7.97;2.22;;;;;;;;;;5024562;28;20356;-72
2023/08/07 09:39:37;;;;;;;8.43;2.03;;;;;;;;;;5025026;28;20119;-73
2023/08/07 09:42:04;;;;;;;7.10;1.50;;;;;;;;;;5020744;28;20092;-71
2023/08/07 09:44:39;;;;;;;5.40;1.92;;;;;;;;;;5026730;28;20049;-71
2023/08/07 09:47:14;;;;;;;9.38;2.20;;;;;;;;;;5039612;28;20120;-71
2023/08/07 09:49:41;;;;;;;7.43;2.20;;;;;;;;;;5026613;28;20041;-71
2023/08/07 09:52:08;;;;;;;11.30;2.72;;;;;;;;;;5021430;28;20046;-72
2023/08/07 09:54:34;;;;;;;13.15;3.45;;;;;;;;;;5039736;28;20025;-70
2023/08/07 09:57:01;;;;;;;7.35;1.88;;;;;;;;;;5025338;28;20045;-69
2023/08/07 09:59:28;;;;;;;8.07;2.20;;;;;;;;;;5024652;28;20037;-72
2023/08/07 10:01:55;;;;;;;12.32;2.67;;;;;;;;;;5020909;28;20048;-71
2023/08/07 10:04:24;;;;;;;8.90;2.17;;;;;;;;;;5024807;28;20036;-71
2023/08/07 10:06:50;;;;;;;7.60;2.00;;;;;;;;;;5024242;28;20041;-72
2023/08/07 10:09:16;;;;;;;7.22;1.75;;;;;;;;;;5023891;28;20951;-72
2023/08/07 10:11:42;;;;;;;10.35;2.15;;;;;;;;;;5020666;28;20482;-72
2023/08/07 10:14:13;;;;;;;7.82;2.40;;;;;;;;;;5024494;28;20045;-72
2023/08/07 10:16:41;;;;;;;6.38;2.00;;;;;;;;;;5021333;28;20037;-72
2023/08/07 10:19:07;;;;;;;8.82;2.00;;;;;;;;;;5018750;28;20026;-71
2023/08/07 10:21:36;;;;;;;9.90;1.73;;;;;;;;;;5013416;28;20030;-71
2023/08/07 10:24:04;;;;;;;7.90;2.00;;;;;;;;;;5016936;28;20037;-70
2023/08/07 10:26:30;;;;;;;8.45;2.60;;;;;;;;;;5024890;28;20069;-70
2023/08/07 10:28:56;;;;;;;11.88;2.58;;;;;;;;;;5023577;28;20043;-70
2023/08/07 10:31:23;;;;;;;9.10;2.10;;;;;;;;;;5023539;28;20040;-71
2023/08/07 10:33:49;;;;;;;8.25;1.70;;;;;;;;;;5025214;28;20108;-72
2023/08/07 10:36:17;;;;;;;6.63;1.73;;;;;;;;;;5024399;28;20549;-70
2023/08/07 10:38:43;;;;;;;8.20;1.73;;;;;;;;;;5021849;28;20030;-70
2023/08/07 10:41:10;;;;;;;9.10;1.83;;;;;;;;;;5025550;28;20040;-71
2023/08/07 10:43:40;;;;;;;11.35;4.88;;;;;;;;;;5023903;28;20030;-76
2023/08/07 10:46:13;;;;;;;5.95;2.60;;;;;;;;;;5023154;28;20030;-71
2023/08/07 10:48:40;;;;;;;6.32;1.42;;;;;;;;;;5024827;28;20633;-71
2023/08/07 10:51:06;;;;;;;6.80;1.70;;;;;;;;;;5028542;28;20535;-71
2023/08/07 10:53:37;;;;;;;5.43;1.90;;;;;;;;;;5020713;28;20564;-69
2023/08/07 10:56:04;;;;;;;3.67;1.65;;;;;;;;;;5024346;28;20109;-71
2023/08/07 10:58:32;;;;;;;4.25;1.52;;;;;;;;;;5026842;28;20045;-71
2023/08/07 11:01:18;;;;;;;4.72;1.30;;;;;;;;;;5024777;28;20040;-72
2023/08/07 11:03:44;;;;;;;8.25;1.52;;;;;;;;;;5017199;28;20042;-71
2023/08/07 11:06:11;;;;;;;6.13;1.45;;;;;;;;;;5024494;28;20040;-72
2023/08/07 11:08:38;;;;;;;3.88;1.17;;;;;;;;;;5025987;28;20069;-70
2023/08/07 11:11:05;;;;;;;4.63;1.20;;;;;;;;;;5028564;28;20045;-71
2023/08/07 11:13:31;;;;;;;4.15;1.40;;;;;;;;;;5043643;28;20037;-71
2023/08/07 11:15:57;;;;;;;7.88;1.67;;;;;;;;;;5028656;28;20044;-71
2023/08/07 11:18:23;;;;;;;6.05;1.50;;;;;;;;;;5029562;28;20087;-72
2023/08/07 11:20:49;;;;;;;4.13;1.92;;;;;;;;;;5028213;28;20036;-70
2023/08/07 11:23:15;;;;;;;6.85;1.73;;;;;;;;;;5029849;28;20041;-72
2023/08/07 11:25:42;;;;;;;5.18;1.95;;;;;;;;;;5030740;28;20033;-71
2023/08/07 11:28:08;;;;;;;5.63;1.60;;;;;;;;;;5027114;28;20550;-73
2023/08/07 11:30:36;;;;;;;7.15;1.90;;;;;;;;;;5029089;28;20111;-71
2023/08/07 11:33:02;;;;;;;9.10;2.40;;;;;;;;;;5045129;28;20045;-71
2023/08/07 11:35:28;;;;;;;5.95;1.80;;;;;;;;;;5028730;28;20053;-72
2023/08/07 11:37:54;;;;;;;9.05;2.72;;;;;;;;;;5029682;28;20037;-71
2023/08/07 11:40:21;;;;;;;11.68;1.80;;;;;;;;;;5028035;28;20390;-71
2023/08/07 11:42:47;;;;;;;5.25;1.92;;;;;;;;;;5030101;28;20473;-71
2023/08/07 11:45:13;;;;;;;6.40;1.90;;;;;;;;;;5029182;28;20364;-71
2023/08/07 11:47:39;;;;;;;9.60;1.80;;;;;;;;;;5027408;28;20472;-71
2023/08/07 11:50:06;;;;;;;8.05;2.00;;;;;;;;;;5030246;28;20483;-70
2023/08/07 11:52:32;;;;;;;7.80;2.38;;;;;;;;;;5028192;28;20132;-70
2023/08/07 11:54:58;;;;;;;5.90;1.30;;;;;;;;;;5028770;28;20029;-72
2023/08/07 11:57:25;;;;;;;6.10;2.08;;;;;;;;;;5029679;28;20425;-71
2023/08/07 11:59:51;;;;;;;8.35;2.20;;;;;;;;;;5028761;28;20034;-71
2023/08/07 12:02:17;;;;;;;10.27;2.35;;;;;;;;;;5029299;28;20036;-70
2023/08/07 12:04:44;;;;;;;9.35;1.88;;;;;;;;;;5027900;28;20112;-72
2023/08/07 12:07:10;;;;;;;9.52;2.08;;;;;;;;;;5026463;28;20060;-71
2023/08/07 12:09:38;;;;;;;7.65;1.80;;;;;;;;;;5026600;28;20468;-71
2023/08/07 12:12:04;;;;;;;7.40;2.10;;;;;;;;;;5029489;28;20586;-69
2023/08/07 12:14:30;;;;;;;9.15;2.08;;;;;;;;;;5027466;28;20048;-70
2023/08/07 12:16:56;;;;;;;9.95;2.97;;;;;;;;;;5027174;28;20030;-71
2023/08/07 12:19:22;;;;;;;3.90;1.30;;;;;;;;;;5029655;28;20506;-69
2023/08/07 12:21:48;;;;;;;4.95;1.67;;;;;;;;;;5027991;28;20048;-70
2023/08/07 12:24:14;;;;;;;4.55;1.58;;;;;;;;;;5027645;28;20140;-70
2023/08/07 12:26:40;;;;;;;6.35;1.70;;;;;;;;;;5028305;28;20030;-71
2023/08/07 12:29:06;;;;;;;6.57;1.80;;;;;;;;;;5028762;28;20046;-70
2023/08/07 12:31:32;;;;;;;7.00;2.92;;;;;;;;;;5027170;28;20037;-69
2023/08/07 12:33:58;;;;;;;5.50;1.90;;;;;;;;;;5028184;28;20042;-72
2023/08/07 12:36:24;;;;;;;6.78;2.10;;;;;;;;;;5023090;28;22294;-70
2023/08/07 12:38:50;;;;;;;6.75;2.47;;;;;;;;;;5020498;28;20049;-72
2023/08/07 12:41:16;;;;;;;4.68;1.65;;;;;;;;;;5019327;28;20026;-71
2023/08/07 12:43:42;;;;;;;4.18;1.95;;;;;;;;;;5021902;28;20041;-71
2023/08/07 12:46:08;;;;;;;7.93;1.90;;;;;;;;;;5021501;28;20036;-69
2023/08/07 12:48:34;;;;;;;6.72;1.77;;;;;;;;;;5022104;28;21639;-72
2023/08/07 12:51:00;;;;;;;6.18;1.70;;;;;;;;;;5022029;28;20037;-71
2023/08/07 12:53:26;;;;;;;9.05;4.07;;;;;;;;;;5021163;28;20180;-70
2023/08/07 12:55:52;;;;;;;10.27;3.97;;;;;;;;;;5017170;28;20095;-70
2023/08/07 12:58:21;;;;;;;4.57;1.38;;;;;;;;;;5027541;28;20049;-71
2023/08/07 13:00:47;;;;;;;9.57;1.73;;;;;;;;;;5024170;28;20030;-70
2023/08/07 13:03:13;;;;;;;3.53;1.67;;;;;;;;;;5018960;28;20420;-69
2023/08/07 13:05:39;;;;;;;7.18;1.63;;;;;;;;;;5021476;28;20056;-69
2023/08/07 13:08:05;;;;;;;6.00;1.58;;;;;;;;;;5019530;28;20056;-71
2023/08/07 13:10:31;;;;;;;5.65;1.95;;;;;;;;;;5021494;28;20400;-73
2023/08/07 13:12:58;;;;;;;11.50;2.03;;;;;;;;;;5022429;28;20095;-73
2023/08/07 13:15:25;;;;;;;7.70;2.38;;;;;;;;;;5023476;28;20029;-73
2023/08/07 13:17:51;;;;;;;6.70;2.20;;;;;;;;;;5020250;28;20033;-72
2023/08/07 13:20:17;;;;;;;13.00;2.72;;;;;;;;;;5021443;28;20028;-72
2023/08/07 13:22:45;;;;;;;9.55;2.47;;;;;;;;;;5020679;28;20522;-70
2023/08/07 13:25:12;;;;;;;8.57;2.40;;;;;;;;;;5020491;28;20054;-70
2023/08/07 13:27:38;;;;;;;12.15;3.03;;;;;;;;;;5023204;28;20560;-70
2023/08/07 13:30:05;;;;;;;8.50;2.05;;;;;;;;;;5022257;28;20096;-71
2023/08/07 13:32:34;;;;;;;7.22;1.83;;;;;;;;;;5037774;28;20045;-70
2023/08/07 13:35:00;;;;;;;11.88;1.85;;;;;;;;;;5022684;28;20058;-73
2023/08/07 13:37:26;;;;;;;8.73;2.25;;;;;;;;;;5019442;28;20036;-70
2023/08/07 13:39:54;;;;;;;7.65;2.10;;;;;;;;;;5035408;28;20059;-71
2023/08/07 13:42:20;;;;;;;7.25;2.03;;;;;;;;;;5019466;28;20151;-71
2023/08/07 13:44:46;;;;;;;6.22;2.45;;;;;;;;;;5020739;28;20072;-72
2023/08/07 13:47:12;;;;;;;6.43;1.77;;;;;;;;;;5024596;28;20104;-70
2023/08/07 13:49:38;;;;;;;7.65;1.77;;;;;;;;;;5022415;28;20109;-69
2023/08/07 13:52:04;;;;;;;8.10;2.10;;;;;;;;;;5018624;28;20096;-71
2023/08/07 13:54:31;;;;;;;5.85;1.88;;;;;;;;;;5021507;28;20079;-71
2023/08/07 13:56:57;;;;;;;8.57;2.30;;;;;;;;;;5039897;28;20112;-71
2023/08/07 13:59:23;;;;;;;10.63;2.47;;;;;;;;;;5023811;28;20117;-69
2023/08/07 14:01:49;;;;;;;5.22;2.22;;;;;;;;;;5020345;28;20025;-72
2023/08/07 14:04:16;;;;;;;6.57;1.98;;;;;;;;;;5020241;28;20120;-69
2023/08/07 14:06:45;;;;;;;8.57;2.20;;;;;;;;;;5020907;28;20033;-70
2023/08/07 14:09:11;;;;;;;4.60;2.00;;;;;;;;;;5020424;28;20034;-71
2023/08/07 14:11:37;;;;;;;8.50;1.65;;;;;;;;;;5022505;28;20541;-70
2023/08/07 14:14:03;;;;;;;7.00;1.60;;;;;;;;;;5026329;28;20026;-70
2023/08/07 14:16:29;;;;;;;10.07;1.80;;;;;;;;;;5027442;28;20266;-71
2023/08/07 14:18:55;;;;;;;4.95;1.77;;;;;;;;;;5027052;28;20034;-70
2023/08/07 14:21:21;;;;;;;6.20;1.63;;;;;;;;;;5025293;28;20034;-70
2023/08/07 14:23:49;;;;;;;5.13;1.55;;;;;;;;;;5043103;28;20033;-70
2023/08/07 14:26:15;;;;;;;6.97;1.67;;;;;;;;;;5024486;28;20105;-73
2023/08/07 14:28:42;;;;;;;7.22;1.48;;;;;;;;;;5027873;28;20490;-70
2023/08/07 14:31:10;;;;;;;7.55;1.52;;;;;;;;;;5026882;28;20208;-71